createdAt,value
2022-12-27T00:01:30.539Z,102024.47
2022-12-27T00:03:57.419Z,102025.41
2022-12-27T00:06:25.853Z,102029.78
2022-12-27T00:08:55.331Z,102031.91
2022-12-27T00:11:25.762Z,102035.56
2022-12-27T00:13:52.910Z,102035.88
2022-12-27T00:16:21.329Z,102031.19
2022-12-27T00:18:49.537Z,102031.44
2022-12-27T00:21:18.158Z,102032.03
2022-12-27T00:23:47.456Z,102028.16
2022-12-27T00:26:18.177Z,102026.75
2022-12-27T00:28:45.606Z,102022.38
2022-12-27T00:31:13.486Z,102022.41
2022-12-27T00:33:42.795Z,102026.94
2022-12-27T00:36:13.930Z,102023.94
2022-12-27T00:38:41.080Z,102027.53
2022-12-27T00:41:08.142Z,102031.13
2022-12-27T00:43:36.395Z,102017.03
2022-12-27T00:46:03.675Z,102020.06
2022-12-27T00:48:30.998Z,102026.34
2022-12-27T00:50:59.592Z,102021.34
2022-12-27T00:53:27.103Z,102029.13
2022-12-27T00:55:54.408Z,102026.00
2022-12-27T00:58:21.284Z,102033.00
2022-12-27T01:00:50.107Z,102042.94
2022-12-27T01:03:18.580Z,102036.28
2022-12-27T01:05:45.545Z,102039.88
2022-12-27T01:08:12.357Z,102046.81
2022-12-27T01:10:40.298Z,102055.91
2022-12-27T01:13:07.930Z,102047.63
2022-12-27T01:15:34.984Z,102050.44
2022-12-27T01:18:03.236Z,102057.47
2022-12-27T01:20:30.090Z,102052.56
2022-12-27T01:22:57.009Z,102067.81
2022-12-27T01:25:23.836Z,102061.44
2022-12-27T01:27:50.746Z,102067.84
2022-12-27T01:30:17.765Z,102063.44
2022-12-27T01:32:44.771Z,102062.66
2022-12-27T01:35:12.970Z,102074.59
2022-12-27T01:37:39.810Z,102078.19
2022-12-27T01:40:08.154Z,102078.19
2022-12-27T01:42:52.962Z,102077.38
2022-12-27T01:45:21.150Z,102082.91
2022-12-27T01:47:53.373Z,102083.69
2022-12-27T01:50:30.992Z,102087.31
2022-12-27T01:53:08.789Z,102090.56
2022-12-27T01:55:42.058Z,102072.84
2022-12-27T01:58:13.673Z,102087.25
2022-12-27T02:00:44.035Z,102093.59
2022-12-27T02:03:14.848Z,102088.13
2022-12-27T02:05:43.224Z,102091.97
2022-12-27T02:08:20.339Z,102091.94
2022-12-27T02:10:48.328Z,102098.84
2022-12-27T02:13:16.508Z,102105.78
2022-12-27T02:15:43.407Z,102111.53
2022-12-27T02:18:10.684Z,102111.50
2022-12-27T02:20:55.355Z,102115.88
2022-12-27T02:24:03.084Z,102113.91
2022-12-27T02:26:44.909Z,102119.66
2022-12-27T02:29:24.378Z,102115.47
2022-12-27T02:31:59.152Z,102107.72
2022-12-27T02:34:30.587Z,102107.09
2022-12-27T02:37:04.971Z,102113.47
2022-12-27T02:39:36.158Z,102107.94
2022-12-27T02:42:22.724Z,102105.94
2022-12-27T02:45:09.855Z,102099.69
2022-12-27T02:47:55.431Z,102107.09
2022-12-27T02:50:41.066Z,102114.19
2022-12-27T02:53:18.460Z,102118.94
2022-12-27T02:56:13.493Z,102116.16
2022-12-27T02:58:52.584Z,102115.63
2022-12-27T03:01:54.893Z,102124.97
2022-12-27T03:04:34.250Z,102133.00
2022-12-27T03:07:13.696Z,102128.00
2022-12-27T03:10:07.868Z,102126.78
2022-12-27T03:13:20.055Z,102117.06
2022-12-27T03:16:12.606Z,102111.00
2022-12-27T03:19:05.282Z,102121.00
2022-12-27T03:21:54.103Z,102122.38
2022-12-27T03:24:42.248Z,102126.28
2022-12-27T03:27:18.421Z,102134.31
2022-12-27T03:30:10.639Z,102135.34
2022-12-27T03:33:03.464Z,102144.22
2022-12-27T03:35:36.585Z,102141.91
2022-12-27T03:38:05.840Z,102140.69
2022-12-27T03:41:07.281Z,102147.25
2022-12-27T03:43:35.662Z,102146.28
2022-12-27T03:46:35.807Z,102151.72
2022-12-27T03:49:21.150Z,102151.22
2022-12-27T03:51:55.538Z,102148.34
2022-12-27T03:54:29.215Z,102144.91
2022-12-27T03:56:58.510Z,102141.66
2022-12-27T03:59:25.885Z,102145.81
2022-12-27T04:01:52.987Z,102144.22
2022-12-27T04:04:19.952Z,102145.97
2022-12-27T04:06:46.917Z,102153.06
2022-12-27T04:09:33.722Z,102150.91
2022-12-27T04:12:19.084Z,102152.84
2022-12-27T04:15:04.369Z,102155.28
2022-12-27T04:17:49.897Z,102151.53
2022-12-27T04:20:35.581Z,102148.13
2022-12-27T04:23:20.654Z,102155.75
2022-12-27T04:26:07.289Z,102171.78
2022-12-27T04:28:53.227Z,102166.38
2022-12-27T04:31:39.024Z,102171.84
2022-12-27T04:34:24.836Z,102178.19
2022-12-27T04:36:51.777Z,102172.25
2022-12-27T04:39:18.688Z,102180.53
2022-12-27T04:42:05.519Z,102185.72
2022-12-27T04:44:50.774Z,102171.56
2022-12-27T04:47:38.896Z,102173.72
2022-12-27T04:50:32.442Z,102171.28
2022-12-27T04:53:18.061Z,102168.72
2022-12-27T04:55:44.905Z,102169.63
2022-12-27T04:58:13.175Z,102167.69
2022-12-27T05:00:58.659Z,102167.69
2022-12-27T05:03:25.937Z,102169.75
2022-12-27T05:05:53.500Z,102177.97
2022-12-27T05:08:39.772Z,102176.38
2022-12-27T05:11:25.669Z,102180.03
2022-12-27T05:13:59.707Z,102178.09
2022-12-27T05:16:27.412Z,102177.91
2022-12-27T05:18:54.430Z,102165.81
2022-12-27T05:21:21.651Z,102164.50
2022-12-27T05:24:06.984Z,102167.84
2022-12-27T05:26:35.063Z,102171.72
2022-12-27T05:29:03.436Z,102165.16
2022-12-27T05:31:30.593Z,102166.22
2022-12-27T05:33:58.207Z,102175.03
2022-12-27T05:36:25.688Z,102174.19
2022-12-27T05:38:52.590Z,102167.09
2022-12-27T05:41:19.468Z,102167.13
2022-12-27T05:43:46.721Z,102169.25
2022-12-27T05:46:16.550Z,102175.63
2022-12-27T05:48:43.459Z,102180.00
2022-12-27T05:51:13.694Z,102179.66
2022-12-27T05:53:40.908Z,102180.53
2022-12-27T05:56:08.615Z,102187.47
2022-12-27T05:58:35.601Z,102185.44
2022-12-27T06:01:07.541Z,102184.88
2022-12-27T06:03:35.937Z,102186.72
2022-12-27T06:06:04.130Z,102181.72
2022-12-27T06:08:31.381Z,102186.97
2022-12-27T06:11:02.888Z,102181.22
2022-12-27T06:13:30.006Z,102177.34
2022-12-27T06:15:59.926Z,102178.44
2022-12-27T06:18:28.070Z,102180.38
2022-12-27T06:21:01.446Z,102181.28
2022-12-27T06:23:28.478Z,102179.34
2022-12-27T06:25:55.472Z,102181.84
2022-12-27T06:28:22.346Z,102177.16
2022-12-27T06:30:50.713Z,102190.44
2022-12-27T06:33:17.621Z,102189.06
2022-12-27T06:35:44.529Z,102183.78
2022-12-27T06:38:12.776Z,102184.34
2022-12-27T06:40:39.633Z,102188.47
2022-12-27T06:43:06.488Z,102193.97
2022-12-27T06:45:33.399Z,102196.44
2022-12-27T06:48:00.406Z,102195.25
2022-12-27T06:50:27.318Z,102187.81
2022-12-27T06:52:54.212Z,102193.59
2022-12-27T06:55:22.752Z,102198.84
2022-12-27T06:57:50.067Z,102200.25
2022-12-27T07:00:18.009Z,102197.34
2022-12-27T07:02:44.962Z,102196.16
2022-12-27T07:05:11.827Z,102199.44
2022-12-27T07:07:38.714Z,102198.38
2022-12-27T07:10:06.757Z,102192.50
2022-12-27T07:12:37.004Z,102189.19
2022-12-27T07:15:05.286Z,102187.88
2022-12-27T07:17:32.354Z,102189.50
2022-12-27T07:19:59.201Z,102190.63
2022-12-27T07:22:26.931Z,102197.50
2022-12-27T07:24:53.815Z,102202.84
2022-12-27T07:27:20.668Z,102202.91
2022-12-27T07:29:48.874Z,102211.69
2022-12-27T07:32:15.735Z,102206.44
2022-12-27T07:34:42.677Z,102199.50
2022-12-27T07:37:09.782Z,102204.13
2022-12-27T07:39:36.613Z,102198.28
2022-12-27T07:42:08.164Z,102201.13
2022-12-27T07:44:35.860Z,102199.06
2022-12-27T07:47:04.291Z,102199.06
2022-12-27T07:49:31.227Z,102200.66
2022-12-27T07:51:58.078Z,102203.41
2022-12-27T07:54:24.967Z,102200.34
2022-12-27T07:56:51.792Z,102214.47
2022-12-27T07:59:18.681Z,102216.53
2022-12-27T08:02:03.992Z,102205.78
2022-12-27T08:04:33.261Z,102202.38
2022-12-27T08:07:04.535Z,102200.72
2022-12-27T08:09:33.964Z,102207.34
2022-12-27T08:12:00.943Z,102201.31
2022-12-27T08:14:27.826Z,102215.94
2022-12-27T08:17:05.915Z,102224.97
2022-12-27T08:19:34.350Z,102218.13
2022-12-27T08:22:01.168Z,102224.81
2022-12-27T08:24:28.084Z,102221.41
2022-12-27T08:26:54.907Z,102213.13
2022-12-27T08:29:21.769Z,102215.88
2022-12-27T08:31:49.005Z,102217.91
2022-12-27T08:34:15.861Z,102206.56
2022-12-27T08:36:54.848Z,102219.31
2022-12-27T08:39:22.708Z,102212.91
2022-12-27T08:41:49.541Z,102209.88
2022-12-27T08:44:16.410Z,102213.50
2022-12-27T08:46:43.311Z,102201.94
2022-12-27T08:49:10.188Z,102198.81
2022-12-27T08:51:41.284Z,102188.56
2022-12-27T08:54:10.070Z,102192.47
2022-12-27T08:56:36.959Z,102187.31
2022-12-27T08:59:04.049Z,102188.50
2022-12-27T09:01:31.011Z,102199.91
2022-12-27T09:03:58.019Z,102200.81
2022-12-27T09:06:25.831Z,102203.69
2022-12-27T09:08:54.811Z,102199.06
2022-12-27T09:11:25.639Z,102203.84
2022-12-27T09:13:53.303Z,102200.53
2022-12-27T09:16:24.156Z,102191.19
2022-12-27T09:18:53.015Z,102200.66
2022-12-27T09:21:21.317Z,102200.78
2022-12-27T09:23:49.171Z,102204.75
2022-12-27T09:26:17.885Z,102201.25
2022-12-27T09:28:47.080Z,102206.28
2022-12-27T09:31:15.161Z,102208.03
2022-12-27T09:33:42.235Z,102209.75
2022-12-27T09:36:11.615Z,102217.00
2022-12-27T09:38:39.022Z,102222.31
2022-12-27T09:41:16.541Z,102237.38
2022-12-27T09:43:58.505Z,102236.59
2022-12-27T09:46:31.605Z,102229.44
2022-12-27T09:48:58.624Z,102231.97
2022-12-27T09:51:30.904Z,102232.25
2022-12-27T09:54:02.201Z,102226.72
2022-12-27T09:56:47.415Z,102227.25
2022-12-27T09:59:25.695Z,102222.53
2022-12-27T10:01:52.782Z,102223.38
2022-12-27T10:04:20.364Z,102227.25
2022-12-27T10:07:09.775Z,102228.97
2022-12-27T10:09:57.116Z,102230.66
2022-12-27T10:12:46.095Z,102235.63
2022-12-27T10:15:26.096Z,102234.19
2022-12-27T10:18:03.532Z,102239.16
2022-12-27T10:20:41.649Z,102242.19
2022-12-27T10:23:14.467Z,102230.22
2022-12-27T10:25:41.585Z,102235.22
2022-12-27T10:28:15.943Z,102235.47
2022-12-27T10:30:44.800Z,102232.69
2022-12-27T10:33:19.900Z,102238.50
2022-12-27T10:35:47.245Z,102233.00
2022-12-27T10:38:14.686Z,102228.88
2022-12-27T10:40:51.779Z,102221.69
2022-12-27T10:43:23.484Z,102218.13
2022-12-27T10:45:51.782Z,102221.22
2022-12-27T10:48:21.040Z,102218.16
2022-12-27T10:50:53.437Z,102220.63
2022-12-27T10:53:31.282Z,102228.44
2022-12-27T10:56:08.235Z,102240.91
2022-12-27T10:58:40.029Z,102234.53
2022-12-27T11:01:16.467Z,102238.13
2022-12-27T11:03:43.686Z,102225.34
2022-12-27T11:06:21.234Z,102225.34
2022-12-27T11:08:48.615Z,102215.34
2022-12-27T11:11:18.507Z,102218.41
2022-12-27T11:13:45.511Z,102205.91
2022-12-27T11:16:23.242Z,102207.59
2022-12-27T11:18:54.557Z,102204.81
2022-12-27T11:21:27.839Z,102213.69
2022-12-27T11:23:58.712Z,102206.19
2022-12-27T11:26:29.776Z,102203.69
2022-12-27T11:28:59.759Z,102191.50
2022-12-27T11:31:32.891Z,102199.78
2022-12-27T11:34:04.917Z,102205.91
2022-12-27T11:36:35.968Z,102199.81
2022-12-27T11:39:03.805Z,102191.47
2022-12-27T11:41:41.152Z,102197.56
2022-12-27T11:44:16.456Z,102198.66
2022-12-27T11:46:55.530Z,102190.31
2022-12-27T11:49:31.405Z,102188.06
2022-12-27T11:52:28.279Z,102178.31
2022-12-27T11:55:27.428Z,102178.03
2022-12-27T11:58:23.491Z,102169.41
2022-12-27T12:01:03.682Z,102173.03
2022-12-27T12:04:04.778Z,102175.78
2022-12-27T12:06:44.829Z,102175.22
2022-12-27T12:09:32.197Z,102174.84
2022-12-27T12:12:21.407Z,102165.09
2022-12-27T12:15:06.542Z,102157.28
2022-12-27T12:17:51.698Z,102152.88
2022-12-27T12:21:04.790Z,102146.28
2022-12-27T12:23:53.750Z,102146.47
2022-12-27T12:26:22.934Z,102144.19
2022-12-27T12:29:22.079Z,102128.88
2022-12-27T12:32:09.983Z,102122.66
2022-12-27T12:34:57.529Z,102114.44
2022-12-27T12:37:45.917Z,102105.34
2022-12-27T12:40:33.112Z,102096.03
2022-12-27T12:43:13.490Z,102095.88
2022-12-27T12:46:02.909Z,102091.56
2022-12-27T12:48:56.299Z,102091.25
2022-12-27T12:52:04.645Z,102077.03
2022-12-27T12:54:56.714Z,102089.38
2022-12-27T12:57:36.700Z,102080.66
2022-12-27T13:00:22.030Z,102081.78
2022-12-27T13:03:11.206Z,102074.25
2022-12-27T13:05:45.594Z,102068.19
2022-12-27T13:08:20.202Z,102061.97
2022-12-27T13:11:05.350Z,102055.13
2022-12-27T13:13:43.691Z,102045.63
2022-12-27T13:16:19.553Z,102046.22
2022-12-27T13:18:57.836Z,102043.81
2022-12-27T13:21:36.882Z,102048.28
2022-12-27T13:25:34.001Z,102041.53
2022-12-27T13:28:13.975Z,102022.53
2022-12-27T13:30:46.951Z,102021.03
2022-12-27T13:33:26.553Z,102020.16
2022-12-27T13:36:12.686Z,102010.28
2022-12-27T13:39:01.425Z,102013.56
2022-12-27T13:41:46.433Z,102010.88
2022-12-27T13:44:54.016Z,102008.63
2022-12-27T13:47:55.647Z,102019.13
2022-12-27T13:51:03.304Z,102011.34
2022-12-27T13:54:23.632Z,102006.56
2022-12-27T13:56:58.052Z,102001.16
2022-12-27T14:00:05.648Z,102001.78
2022-12-27T14:03:10.325Z,101990.19
2022-12-27T14:06:20.804Z,101981.91
2022-12-27T14:09:26.416Z,101986.63
2022-12-27T14:12:16.776Z,101983.38
2022-12-27T14:14:46.751Z,101981.06
2022-12-27T14:17:29.754Z,101976.16
2022-12-27T14:20:24.599Z,101970.22
2022-12-27T14:23:17.725Z,101964.06
2022-12-27T14:26:12.015Z,101954.03
2022-12-27T14:29:24.471Z,101944.25
2022-12-27T14:32:39.565Z,101940.59
2022-12-27T14:35:24.357Z,101931.84
2022-12-27T14:38:35.766Z,101936.25
2022-12-27T14:41:50.187Z,101934.78
2022-12-27T14:44:59.208Z,101935.09
2022-12-27T14:48:01.451Z,101928.97
2022-12-27T14:50:57.904Z,101927.59
2022-12-27T14:54:12.405Z,101926.84
2022-12-27T14:56:53.731Z,101927.75
2022-12-27T14:59:30.732Z,101933.53
2022-12-27T15:02:08.955Z,101933.34
2022-12-27T15:04:50.897Z,101941.47
2022-12-27T15:07:35.180Z,101937.31
2022-12-27T15:10:05.107Z,101938.97
2022-12-27T15:12:43.848Z,101945.06
2022-12-27T15:15:23.753Z,101943.22
2022-12-27T15:18:12.109Z,101928.28
2022-12-27T15:20:55.444Z,101928.34
2022-12-27T15:23:33.980Z,101923.38
2022-12-27T15:26:11.558Z,101924.50
2022-12-27T15:28:51.688Z,101917.25
2022-12-27T15:31:30.116Z,101910.06
2022-12-27T15:34:12.794Z,101911.75
2022-12-27T15:36:42.710Z,101920.53
2022-12-27T15:39:43.466Z,101926.19
2022-12-27T15:42:38.654Z,101927.59
2022-12-27T15:45:18.522Z,101924.22
2022-12-27T15:48:05.368Z,101915.44
2022-12-27T15:50:44.177Z,101926.22
2022-12-27T15:53:32.780Z,101914.63
2022-12-27T15:56:34.023Z,101911.09
2022-12-27T15:59:33.835Z,101922.19
2022-12-27T16:02:30.547Z,101910.88
2022-12-27T16:05:05.263Z,101904.28
2022-12-27T16:07:39.289Z,101906.00
2022-12-27T16:10:33.004Z,101903.72
2022-12-27T16:13:13.363Z,101907.88
2022-12-27T16:15:53.564Z,101913.75
2022-12-27T16:19:08.844Z,101908.78
2022-12-27T16:21:41.919Z,101910.75
2022-12-27T16:24:16.079Z,101905.69
2022-12-27T16:26:54.424Z,101906.22
2022-12-27T16:29:26.246Z,101898.22
2022-12-27T16:32:16.927Z,101909.34
2022-12-27T16:34:46.538Z,101904.28
2022-12-27T16:37:28.368Z,101886.56
2022-12-27T16:40:14.889Z,101892.94
2022-12-27T16:43:26.368Z,101895.81
2022-12-27T16:46:00.167Z,101888.34
2022-12-27T16:48:39.769Z,101896.38
2022-12-27T16:51:17.528Z,101884.72
2022-12-27T16:54:02.242Z,101889.41
2022-12-27T16:56:31.144Z,101892.25
2022-12-27T16:58:58.078Z,101886.38
2022-12-27T17:01:56.465Z,101871.97
2022-12-27T17:04:59.216Z,101876.44
2022-12-27T17:07:41.410Z,101868.69
2022-12-27T17:10:42.637Z,101867.88
2022-12-27T17:13:14.695Z,101866.22
2022-12-27T17:15:51.199Z,101864.84
2022-12-27T17:18:26.944Z,101859.50
2022-12-27T17:21:02.158Z,101845.91
2022-12-27T17:23:29.979Z,101849.00
2022-12-27T17:26:12.764Z,101846.81
2022-12-27T17:28:48.402Z,101838.81
2022-12-27T17:31:22.839Z,101845.44
2022-12-27T17:34:03.129Z,101834.59
2022-12-27T17:36:42.443Z,101836.28
2022-12-27T17:39:24.869Z,101831.31
2022-12-27T17:42:19.872Z,101820.25
2022-12-27T17:45:04.505Z,101818.81
2022-12-27T17:47:53.200Z,101821.31
2022-12-27T17:50:24.054Z,101808.63
2022-12-27T17:53:22.355Z,101808.00
2022-12-27T17:56:19.514Z,101811.41
2022-12-27T17:58:47.755Z,101819.19
2022-12-27T18:01:14.907Z,101810.56
2022-12-27T18:03:44.805Z,101813.38
2022-12-27T18:06:12.361Z,101806.44
2022-12-27T18:08:40.331Z,101807.88
2022-12-27T18:11:10.338Z,101805.66
2022-12-27T18:13:45.084Z,101797.31
2022-12-27T18:16:18.418Z,101795.09
2022-12-27T18:18:47.984Z,101788.19
2022-12-27T18:21:23.025Z,101795.66
2022-12-27T18:23:52.804Z,101790.38
2022-12-27T18:26:21.864Z,101792.03
2022-12-27T18:28:48.926Z,101786.50
2022-12-27T18:31:24.012Z,101782.59
2022-12-27T18:33:53.201Z,101775.94
2022-12-27T18:36:29.310Z,101764.00
2022-12-27T18:39:00.583Z,101766.56
2022-12-27T18:41:34.129Z,101764.28
2022-12-27T18:44:01.765Z,101752.94
2022-12-27T18:46:32.650Z,101751.47
2022-12-27T18:49:00.362Z,101751.69
2022-12-27T18:51:32.973Z,101732.47
2022-12-27T18:54:00.046Z,101745.25
2022-12-27T18:56:32.663Z,101745.88
2022-12-27T18:59:01.876Z,101735.59
2022-12-27T19:01:38.525Z,101745.28
2022-12-27T19:04:25.345Z,101735.22
2022-12-27T19:06:57.395Z,101724.94
2022-12-27T19:09:28.263Z,101719.19
2022-12-27T19:11:58.755Z,101721.13
2022-12-27T19:14:26.935Z,101716.13
2022-12-27T19:16:58.231Z,101721.47
2022-12-27T19:19:28.125Z,101703.44
2022-12-27T19:21:56.238Z,101696.53
2022-12-27T19:24:33.006Z,101701.75
2022-12-27T19:27:02.059Z,101703.22
2022-12-27T19:29:34.219Z,101702.31
2022-12-27T19:32:07.317Z,101691.22
2022-12-27T19:34:42.864Z,101685.63
2022-12-27T19:37:10.499Z,101687.81
2022-12-27T19:39:39.302Z,101684.19
2022-12-27T19:42:11.812Z,101683.88
2022-12-27T19:44:38.713Z,101674.16
2022-12-27T19:47:10.432Z,101670.78
2022-12-27T19:49:42.970Z,101683.03
2022-12-27T19:52:15.520Z,101669.06
2022-12-27T19:54:42.764Z,101658.56
2022-12-27T19:57:11.643Z,101655.28
2022-12-27T19:59:38.836Z,101655.78
2022-12-27T20:02:07.684Z,101644.41
2022-12-27T20:04:34.870Z,101639.94
2022-12-27T20:07:02.625Z,101636.63
2022-12-27T20:09:29.953Z,101630.72
2022-12-27T20:11:57.045Z,101636.25
2022-12-27T20:14:23.897Z,101627.94
2022-12-27T20:16:50.863Z,101629.03
2022-12-27T20:19:20.310Z,101625.53
2022-12-27T20:21:47.584Z,101633.78
2022-12-27T20:24:14.759Z,101621.25
2022-12-27T20:26:42.552Z,101621.63
2022-12-27T20:29:09.770Z,101623.50
2022-12-27T20:31:44.304Z,101614.75
2022-12-27T20:34:12.148Z,101622.44
2022-12-27T20:36:41.934Z,101619.38
2022-12-27T20:39:09.607Z,101611.31
2022-12-27T20:41:36.812Z,101605.19
2022-12-27T20:44:03.736Z,101598.88
2022-12-27T20:46:30.581Z,101604.91
2022-12-27T20:48:57.654Z,101600.94
2022-12-27T20:51:27.981Z,101605.19
2022-12-27T20:53:57.468Z,101602.31
2022-12-27T20:56:25.199Z,101591.25
2022-12-27T20:58:52.181Z,101592.44
2022-12-27T21:01:20.704Z,101584.94
2022-12-27T21:03:48.028Z,101578.78
2022-12-27T21:06:16.987Z,101571.63
2022-12-27T21:08:52.549Z,101556.28
2022-12-27T21:11:30.369Z,101563.09
2022-12-27T21:13:57.796Z,101563.19
2022-12-27T21:16:27.210Z,101559.06
2022-12-27T21:18:54.888Z,101553.56
2022-12-27T21:21:25.698Z,101555.38
2022-12-27T21:23:55.168Z,101542.78
2022-12-27T21:26:25.658Z,101536.03
2022-12-27T21:28:52.621Z,101533.78
2022-12-27T21:31:19.771Z,101517.34
2022-12-27T21:33:47.084Z,101523.66
2022-12-27T21:36:15.862Z,101513.34
2022-12-27T21:38:43.374Z,101516.66
2022-12-27T21:41:12.659Z,101502.78
2022-12-27T21:43:41.552Z,101505.63
2022-12-27T21:46:11.541Z,101486.94
2022-12-27T21:48:38.678Z,101481.06
2022-12-27T21:51:06.676Z,101479.63
2022-12-27T21:53:33.519Z,101478.13
2022-12-27T21:56:00.629Z,101468.66
2022-12-27T21:58:29.640Z,101466.47
2022-12-27T22:01:08.160Z,101461.47
2022-12-27T22:03:37.385Z,101460.19
2022-12-27T22:06:10.054Z,101465.34
2022-12-27T22:08:37.229Z,101459.28
2022-12-27T22:11:04.112Z,101463.31
2022-12-27T22:13:31.248Z,101470.09
2022-12-27T22:15:59.877Z,101478.53
2022-12-27T22:18:31.310Z,101467.75
2022-12-27T22:21:00.979Z,101457.41
2022-12-27T22:23:31.132Z,101452.97
2022-12-27T22:25:57.945Z,101450.88
2022-12-27T22:28:24.830Z,101433.06
2022-12-27T22:30:52.043Z,101434.75
2022-12-27T22:33:19.235Z,101427.84
2022-12-27T22:35:47.645Z,101418.56
2022-12-27T22:38:14.745Z,101394.50
2022-12-27T22:40:46.205Z,101411.31
2022-12-27T22:43:13.717Z,101401.28
2022-12-27T22:45:41.293Z,101395.94
2022-12-27T22:48:08.200Z,101400.13
2022-12-27T22:50:36.958Z,101392.25
2022-12-27T22:53:05.248Z,101385.69
2022-12-27T22:55:32.071Z,101374.97
2022-12-27T22:57:58.904Z,101368.53
2022-12-27T23:00:25.809Z,101359.06
2022-12-27T23:02:52.971Z,101357.03
2022-12-27T23:05:20.024Z,101346.81
2022-12-27T23:08:03.612Z,101334.88
2022-12-27T23:10:35.664Z,101326.88
2022-12-27T23:13:02.711Z,101329.66
2022-12-27T23:15:29.493Z,101322.88
2022-12-27T23:17:56.338Z,101321.81
2022-12-27T23:20:23.178Z,101312.28
2022-12-27T23:22:50.023Z,101292.63
2022-12-27T23:25:16.809Z,101310.09
2022-12-27T23:27:45.035Z,101308.06
2022-12-27T23:30:13.636Z,101315.88
2022-12-27T23:32:40.634Z,101312.19
2022-12-27T23:35:08.171Z,101297.19
2022-12-27T23:37:35.948Z,101289.25
2022-12-27T23:40:02.866Z,101281.75
2022-12-27T23:42:29.713Z,101271.16
2022-12-27T23:44:57.974Z,101275.19
2022-12-27T23:47:24.779Z,101278.78
2022-12-27T23:49:51.614Z,101257.78
2022-12-27T23:52:18.581Z,101257.66
2022-12-27T23:54:45.449Z,101251.09
2022-12-27T23:57:22.135Z,101250.16
2022-12-27T23:59:49.880Z,101247.47
